sensor_id;sensor_type;location;lat;lon;timestamp;P1;durP1;ratioP1;P2;durP2;ratioP2
30185;SDS011;31152;49.190;8.122;2023-03-12T00:01:25;11.80;;;2.90;;
30185;SDS011;31152;49.190;8.122;2023-03-12T00:03:55;14.13;;;2.95;;
30185;SDS011;31152;49.190;8.122;2023-03-12T00:06:24;8.55;;;2.78;;
30185;SDS011;31152;49.190;8.122;2023-03-12T00:08:51;10.68;;;2.88;;
30185;SDS011;31152;49.190;8.122;2023-03-12T00:11:21;7.60;;;2.85;;
30185;SDS011;31152;49.190;8.122;2023-03-12T00:13:51;13.63;;;2.60;;
30185;SDS011;31152;49.190;8.122;2023-03-12T00:16:20;6.43;;;2.42;;
30185;SDS011;31152;49.190;8.122;2023-03-12T00:18:48;11.15;;;3.15;;
30185;SDS011;31152;49.190;8.122;2023-03-12T00:21:16;8.60;;;2.85;;
30185;SDS011;31152;49.190;8.122;2023-03-12T00:23:44;9.65;;;2.80;;
30185;SDS011;31152;49.190;8.122;2023-03-12T00:26:15;12.55;;;2.78;;
30185;SDS011;31152;49.190;8.122;2023-03-12T00:28:43;10.43;;;2.50;;
30185;SDS011;31152;49.190;8.122;2023-03-12T00:33:49;11.38;;;2.60;;
30185;SDS011;31152;49.190;8.122;2023-03-12T00:36:17;12.68;;;2.85;;
30185;SDS011;31152;49.190;8.122;2023-03-12T00:38:45;14.65;;;3.40;;
30185;SDS011;31152;49.190;8.122;2023-03-12T00:41:12;11.02;;;2.78;;
30185;SDS011;31152;49.190;8.122;2023-03-12T00:43:38;5.97;;;2.33;;
30185;SDS011;31152;49.190;8.122;2023-03-12T00:46:05;9.57;;;2.70;;
30185;SDS011;31152;49.190;8.122;2023-03-12T00:48:32;8.00;;;2.90;;
30185;SDS011;31152;49.190;8.122;2023-03-12T00:50:59;8.07;;;2.97;;
30185;SDS011;31152;49.190;8.122;2023-03-12T00:53:25;7.93;;;2.78;;
30185;SDS011;31152;49.190;8.122;2023-03-12T00:55:52;11.80;;;2.70;;
30185;SDS011;31152;49.190;8.122;2023-03-12T00:58:19;11.07;;;2.72;;
30185;SDS011;31152;49.190;8.122;2023-03-12T01:00:48;4.80;;;2.20;;
30185;SDS011;31152;49.190;8.122;2023-03-12T01:03:15;9.65;;;2.58;;
30185;SDS011;31152;49.190;8.122;2023-03-12T01:05:41;7.30;;;2.72;;
30185;SDS011;31152;49.190;8.122;2023-03-12T01:08:08;8.57;;;3.10;;
30185;SDS011;31152;49.190;8.122;2023-03-12T01:10:39;9.35;;;2.63;;
30185;SDS011;31152;49.190;8.122;2023-03-12T01:13:11;7.85;;;2.40;;
30185;SDS011;31152;49.190;8.122;2023-03-12T01:15:38;7.18;;;2.28;;
30185;SDS011;31152;49.190;8.122;2023-03-12T01:18:04;12.38;;;3.00;;
30185;SDS011;31152;49.190;8.122;2023-03-12T01:20:31;6.80;;;2.20;;
30185;SDS011;31152;49.190;8.122;2023-03-12T01:22:58;12.20;;;2.55;;
30185;SDS011;31152;49.190;8.122;2023-03-12T01:25:24;14.38;;;2.60;;
30185;SDS011;31152;49.190;8.122;2023-03-12T01:27:51;8.50;;;2.50;;
30185;SDS011;31152;49.190;8.122;2023-03-12T01:30:18;9.27;;;2.17;;
30185;SDS011;31152;49.190;8.122;2023-03-12T01:32:48;8.32;;;2.30;;
30185;SDS011;31152;49.190;8.122;2023-03-12T01:35:17;8.43;;;2.75;;
30185;SDS011;31152;49.190;8.122;2023-03-12T01:37:44;11.40;;;2.85;;
30185;SDS011;31152;49.190;8.122;2023-03-12T01:40:20;7.63;;;2.47;;
30185;SDS011;31152;49.190;8.122;2023-03-12T01:42:55;11.57;;;2.30;;
30185;SDS011;31152;49.190;8.122;2023-03-12T01:48:28;17.55;;;2.60;;
30185;SDS011;31152;49.190;8.122;2023-03-12T01:50:59;12.98;;;2.80;;
30185;SDS011;31152;49.190;8.122;2023-03-12T01:53:28;10.93;;;3.40;;
30185;SDS011;31152;49.190;8.122;2023-03-12T01:55:56;10.75;;;4.38;;
30185;SDS011;31152;49.190;8.122;2023-03-12T01:58:24;13.25;;;3.38;;
30185;SDS011;31152;49.190;8.122;2023-03-12T02:00:53;12.57;;;3.72;;
30185;SDS011;31152;49.190;8.122;2023-03-12T02:03:21;12.07;;;3.80;;
30185;SDS011;31152;49.190;8.122;2023-03-12T02:05:52;16.35;;;3.80;;
30185;SDS011;31152;49.190;8.122;2023-03-12T02:08:34;8.18;;;3.58;;
30185;SDS011;31152;49.190;8.122;2023-03-12T02:11:08;10.40;;;3.03;;
30185;SDS011;31152;49.190;8.122;2023-03-12T02:13:35;9.20;;;2.70;;
30185;SDS011;31152;49.190;8.122;2023-03-12T02:16:02;9.70;;;2.60;;
30185;SDS011;31152;49.190;8.122;2023-03-12T02:18:29;7.78;;;2.38;;
30185;SDS011;31152;49.190;8.122;2023-03-12T02:21:15;6.85;;;2.72;;
30185;SDS011;31152;49.190;8.122;2023-03-12T02:23:56;10.90;;;2.90;;
30185;SDS011;31152;49.190;8.122;2023-03-12T02:26:30;7.40;;;2.60;;
30185;SDS011;31152;49.190;8.122;2023-03-12T02:28:58;9.93;;;3.13;;
30185;SDS011;31152;49.190;8.122;2023-03-12T02:31:27;7.97;;;2.25;;
30185;SDS011;31152;49.190;8.122;2023-03-12T02:33:58;11.15;;;2.50;;
30185;SDS011;31152;49.190;8.122;2023-03-12T02:36:27;9.35;;;2.45;;
30185;SDS011;31152;49.190;8.122;2023-03-12T02:38:54;11.10;;;2.83;;
30185;SDS011;31152;49.190;8.122;2023-03-12T02:41:28;10.05;;;3.35;;
30185;SDS011;31152;49.190;8.122;2023-03-12T02:44:02;7.20;;;2.15;;
30185;SDS011;31152;49.190;8.122;2023-03-12T02:46:40;7.68;;;2.42;;
30185;SDS011;31152;49.190;8.122;2023-03-12T02:49:09;7.50;;;2.53;;
30185;SDS011;31152;49.190;8.122;2023-03-12T02:51:40;9.15;;;2.33;;
30185;SDS011;31152;49.190;8.122;2023-03-12T02:54:08;8.10;;;2.20;;
30185;SDS011;31152;49.190;8.122;2023-03-12T02:56:38;11.60;;;2.60;;
30185;SDS011;31152;49.190;8.122;2023-03-12T02:59:06;13.48;;;2.47;;
30185;SDS011;31152;49.190;8.122;2023-03-12T03:01:35;8.80;;;2.70;;
30185;SDS011;31152;49.190;8.122;2023-03-12T03:04:02;9.63;;;2.67;;
30185;SDS011;31152;49.190;8.122;2023-03-12T03:06:30;6.53;;;2.20;;
30185;SDS011;31152;49.190;8.122;2023-03-12T03:08:58;12.10;;;2.17;;
30185;SDS011;31152;49.190;8.122;2023-03-12T03:11:28;5.72;;;1.75;;
30185;SDS011;31152;49.190;8.122;2023-03-12T03:13:57;8.45;;;2.30;;
30185;SDS011;31152;49.190;8.122;2023-03-12T03:16:24;7.45;;;2.05;;
30185;SDS011;31152;49.190;8.122;2023-03-12T03:18:51;9.52;;;2.00;;
30185;SDS011;31152;49.190;8.122;2023-03-12T03:21:17;7.10;;;1.83;;
30185;SDS011;31152;49.190;8.122;2023-03-12T03:23:48;9.13;;;2.10;;
30185;SDS011;31152;49.190;8.122;2023-03-12T03:26:17;8.13;;;1.88;;
30185;SDS011;31152;49.190;8.122;2023-03-12T03:28:45;8.98;;;1.70;;
30185;SDS011;31152;49.190;8.122;2023-03-12T03:31:12;9.95;;;2.10;;
30185;SDS011;31152;49.190;8.122;2023-03-12T03:33:39;9.32;;;2.05;;
30185;SDS011;31152;49.190;8.122;2023-03-12T03:36:07;8.30;;;1.80;;
30185;SDS011;31152;49.190;8.122;2023-03-12T03:38:39;6.75;;;2.00;;
30185;SDS011;31152;49.190;8.122;2023-03-12T03:41:06;10.52;;;2.22;;
30185;SDS011;31152;49.190;8.122;2023-03-12T03:43:33;5.22;;;2.00;;
30185;SDS011;31152;49.190;8.122;2023-03-12T03:46:03;10.80;;;2.03;;
30185;SDS011;31152;49.190;8.122;2023-03-12T03:48:33;10.45;;;2.50;;
30185;SDS011;31152;49.190;8.122;2023-03-12T03:51:01;9.02;;;1.90;;
30185;SDS011;31152;49.190;8.122;2023-03-12T03:53:31;7.07;;;2.05;;
30185;SDS011;31152;49.190;8.122;2023-03-12T03:56:09;8.57;;;1.83;;
30185;SDS011;31152;49.190;8.122;2023-03-12T03:58:38;10.85;;;2.03;;
30185;SDS011;31152;49.190;8.122;2023-03-12T04:01:05;9.45;;;2.22;;
30185;SDS011;31152;49.190;8.122;2023-03-12T04:03:32;8.52;;;2.45;;
30185;SDS011;31152;49.190;8.122;2023-03-12T04:06:00;8.98;;;2.20;;
30185;SDS011;31152;49.190;8.122;2023-03-12T04:08:28;6.20;;;2.58;;
30185;SDS011;31152;49.190;8.122;2023-03-12T04:10:58;8.63;;;3.03;;
30185;SDS011;31152;49.190;8.122;2023-03-12T04:13:26;8.32;;;2.40;;
30185;SDS011;31152;49.190;8.122;2023-03-12T04:15:53;9.32;;;2.45;;
30185;SDS011;31152;49.190;8.122;2023-03-12T04:18:22;10.43;;;2.90;;
30185;SDS011;31152;49.190;8.122;2023-03-12T04:20:51;4.63;;;2.22;;
30185;SDS011;31152;49.190;8.122;2023-03-12T04:23:18;8.57;;;2.55;;
30185;SDS011;31152;49.190;8.122;2023-03-12T04:25:44;7.90;;;2.55;;
30185;SDS011;31152;49.190;8.122;2023-03-12T04:28:11;10.27;;;3.40;;
30185;SDS011;31152;49.190;8.122;2023-03-12T04:30:40;7.60;;;3.40;;
30185;SDS011;31152;49.190;8.122;2023-03-12T04:33:07;8.32;;;2.92;;
30185;SDS011;31152;49.190;8.122;2023-03-12T04:35:34;12.20;;;2.90;;
30185;SDS011;31152;49.190;8.122;2023-03-12T04:38:01;13.23;;;2.33;;
30185;SDS011;31152;49.190;8.122;2023-03-12T04:40:28;6.72;;;2.45;;
30185;SDS011;31152;49.190;8.122;2023-03-12T04:42:55;6.88;;;2.08;;
30185;SDS011;31152;49.190;8.122;2023-03-12T04:45:21;9.60;;;1.92;;
30185;SDS011;31152;49.190;8.122;2023-03-12T04:47:48;10.10;;;2.03;;
30185;SDS011;31152;49.190;8.122;2023-03-12T04:50:15;6.93;;;2.00;;
30185;SDS011;31152;49.190;8.122;2023-03-12T04:52:44;8.80;;;2.30;;
30185;SDS011;31152;49.190;8.122;2023-03-12T04:55:10;6.90;;;2.13;;
30185;SDS011;31152;49.190;8.122;2023-03-12T04:57:37;10.07;;;1.90;;
30185;SDS011;31152;49.190;8.122;2023-03-12T05:00:04;8.20;;;2.33;;
30185;SDS011;31152;49.190;8.122;2023-03-12T05:02:36;9.68;;;2.63;;
30185;SDS011;31152;49.190;8.122;2023-03-12T05:05:06;6.82;;;2.53;;
30185;SDS011;31152;49.190;8.122;2023-03-12T05:07:35;8.80;;;2.40;;
30185;SDS011;31152;49.190;8.122;2023-03-12T05:10:02;9.00;;;2.10;;
30185;SDS011;31152;49.190;8.122;2023-03-12T05:12:31;10.70;;;3.13;;
30185;SDS011;31152;49.190;8.122;2023-03-12T05:14:58;9.98;;;2.22;;
30185;SDS011;31152;49.190;8.122;2023-03-12T05:17:25;8.40;;;1.98;;
30185;SDS011;31152;49.190;8.122;2023-03-12T05:19:54;8.02;;;2.45;;
30185;SDS011;31152;49.190;8.122;2023-03-12T05:22:20;8.65;;;2.15;;
30185;SDS011;31152;49.190;8.122;2023-03-12T05:24:50;8.95;;;2.20;;
30185;SDS011;31152;49.190;8.122;2023-03-12T05:27:18;7.63;;;2.67;;
30185;SDS011;31152;49.190;8.122;2023-03-12T05:29:45;6.13;;;2.15;;
30185;SDS011;31152;49.190;8.122;2023-03-12T05:32:14;6.80;;;2.20;;
30185;SDS011;31152;49.190;8.122;2023-03-12T05:34:41;11.73;;;3.22;;
30185;SDS011;31152;49.190;8.122;2023-03-12T05:37:10;9.60;;;2.20;;
30185;SDS011;31152;49.190;8.122;2023-03-12T05:39:37;8.57;;;2.35;;
30185;SDS011;31152;49.190;8.122;2023-03-12T05:42:04;9.73;;;2.22;;
30185;SDS011;31152;49.190;8.122;2023-03-12T05:44:31;6.07;;;2.42;;
30185;SDS011;31152;49.190;8.122;2023-03-12T05:46:59;5.65;;;2.20;;
30185;SDS011;31152;49.190;8.122;2023-03-12T05:49:26;5.72;;;2.13;;
30185;SDS011;31152;49.190;8.122;2023-03-12T05:51:53;5.28;;;2.53;;
30185;SDS011;31152;49.190;8.122;2023-03-12T05:54:22;9.27;;;2.50;;
30185;SDS011;31152;49.190;8.122;2023-03-12T05:56:49;12.00;;;2.70;;
30185;SDS011;31152;49.190;8.122;2023-03-12T05:59:16;11.25;;;3.00;;
30185;SDS011;31152;49.190;8.122;2023-03-12T06:01:42;9.52;;;2.92;;
30185;SDS011;31152;49.190;8.122;2023-03-12T06:04:09;4.55;;;3.03;;
30185;SDS011;31152;49.190;8.122;2023-03-12T06:06:36;8.63;;;2.97;;
30185;SDS011;31152;49.190;8.122;2023-03-12T06:09:06;5.82;;;2.38;;
30185;SDS011;31152;49.190;8.122;2023-03-12T06:11:33;6.47;;;2.50;;
30185;SDS011;31152;49.190;8.122;2023-03-12T06:14:02;6.00;;;2.65;;
30185;SDS011;31152;49.190;8.122;2023-03-12T06:16:29;7.72;;;2.95;;
30185;SDS011;31152;49.190;8.122;2023-03-12T06:18:57;6.68;;;2.40;;
30185;SDS011;31152;49.190;8.122;2023-03-12T06:21:30;5.50;;;2.60;;
30185;SDS011;31152;49.190;8.122;2023-03-12T06:23:58;9.70;;;2.95;;
30185;SDS011;31152;49.190;8.122;2023-03-12T06:26:26;9.23;;;2.67;;
30185;SDS011;31152;49.190;8.122;2023-03-12T06:28:53;8.57;;;2.53;;
30185;SDS011;31152;49.190;8.122;2023-03-12T06:31:21;5.38;;;2.30;;
30185;SDS011;31152;49.190;8.122;2023-03-12T06:33:48;13.35;;;2.92;;
30185;SDS011;31152;49.190;8.122;2023-03-12T06:36:18;8.90;;;2.40;;
30185;SDS011;31152;49.190;8.122;2023-03-12T06:38:46;5.15;;;2.35;;
30185;SDS011;31152;49.190;8.122;2023-03-12T06:41:16;8.32;;;3.42;;
30185;SDS011;31152;49.190;8.122;2023-03-12T06:43:46;10.45;;;2.60;;
30185;SDS011;31152;49.190;8.122;2023-03-12T06:46:15;10.20;;;3.03;;
30185;SDS011;31152;49.190;8.122;2023-03-12T06:48:43;15.05;;;3.35;;
30185;SDS011;31152;49.190;8.122;2023-03-12T06:51:12;11.70;;;4.07;;
30185;SDS011;31152;49.190;8.122;2023-03-12T06:53:40;13.85;;;4.50;;
30185;SDS011;31152;49.190;8.122;2023-03-12T06:56:12;11.80;;;4.65;;
30185;SDS011;31152;49.190;8.122;2023-03-12T06:58:39;14.32;;;5.72;;
30185;SDS011;31152;49.190;8.122;2023-03-12T07:01:08;10.48;;;5.60;;
30185;SDS011;31152;49.190;8.122;2023-03-12T07:03:35;15.65;;;5.65;;
30185;SDS011;31152;49.190;8.122;2023-03-12T07:06:02;19.08;;;5.95;;
30185;SDS011;31152;49.190;8.122;2023-03-12T07:08:29;13.52;;;6.03;;
30185;SDS011;31152;49.190;8.122;2023-03-12T07:10:58;17.77;;;5.95;;
30185;SDS011;31152;49.190;8.122;2023-03-12T07:13:27;18.10;;;6.20;;
30185;SDS011;31152;49.190;8.122;2023-03-12T07:15:54;12.98;;;6.28;;
30185;SDS011;31152;49.190;8.122;2023-03-12T07:18:26;13.57;;;6.20;;
30185;SDS011;31152;49.190;8.122;2023-03-12T07:20:53;15.52;;;5.85;;
30185;SDS011;31152;49.190;8.122;2023-03-12T07:23:22;12.30;;;6.78;;
30185;SDS011;31152;49.190;8.122;2023-03-12T07:25:49;17.83;;;6.72;;
30185;SDS011;31152;49.190;8.122;2023-03-12T07:28:16;14.98;;;6.47;;
30185;SDS011;31152;49.190;8.122;2023-03-12T07:30:44;15.27;;;7.40;;
30185;SDS011;31152;49.190;8.122;2023-03-12T07:33:16;13.32;;;7.53;;
30185;SDS011;31152;49.190;8.122;2023-03-12T07:35:45;15.35;;;6.65;;
30185;SDS011;31152;49.190;8.122;2023-03-12T07:38:17;16.77;;;7.00;;
30185;SDS011;31152;49.190;8.122;2023-03-12T07:40:44;11.27;;;6.70;;
30185;SDS011;31152;49.190;8.122;2023-03-12T07:43:15;13.75;;;6.72;;
30185;SDS011;31152;49.190;8.122;2023-03-12T07:45:44;19.65;;;7.28;;
30185;SDS011;31152;49.190;8.122;2023-03-12T07:48:13;13.15;;;7.15;;
30185;SDS011;31152;49.190;8.122;2023-03-12T07:50:40;17.77;;;7.35;;
30185;SDS011;31152;49.190;8.122;2023-03-12T07:53:07;17.15;;;7.03;;
30185;SDS011;31152;49.190;8.122;2023-03-12T07:55:36;15.80;;;7.00;;
30185;SDS011;31152;49.190;8.122;2023-03-12T07:58:05;11.07;;;7.35;;
30185;SDS011;31152;49.190;8.122;2023-03-12T08:00:32;14.00;;;7.18;;
30185;SDS011;31152;49.190;8.122;2023-03-12T08:02:59;16.95;;;7.82;;
30185;SDS011;31152;49.190;8.122;2023-03-12T08:05:26;15.35;;;7.97;;
30185;SDS011;31152;49.190;8.122;2023-03-12T08:07:55;19.73;;;7.70;;
30185;SDS011;31152;49.190;8.122;2023-03-12T08:10:22;13.60;;;7.60;;
30185;SDS011;31152;49.190;8.122;2023-03-12T08:12:49;15.35;;;7.95;;
30185;SDS011;31152;49.190;8.122;2023-03-12T08:15:16;17.08;;;8.55;;
30185;SDS011;31152;49.190;8.122;2023-03-12T08:17:43;17.20;;;8.48;;
30185;SDS011;31152;49.190;8.122;2023-03-12T08:20:10;18.98;;;9.15;;
30185;SDS011;31152;49.190;8.122;2023-03-12T08:22:37;21.23;;;10.15;;
30185;SDS011;31152;49.190;8.122;2023-03-12T08:25:05;21.50;;;8.57;;
30185;SDS011;31152;49.190;8.122;2023-03-12T08:27:34;19.27;;;9.45;;
30185;SDS011;31152;49.190;8.122;2023-03-12T08:30:01;18.33;;;9.80;;
30185;SDS011;31152;49.190;8.122;2023-03-12T08:32:29;21.65;;;10.38;;
30185;SDS011;31152;49.190;8.122;2023-03-12T08:34:55;22.67;;;10.90;;
30185;SDS011;31152;49.190;8.122;2023-03-12T08:37:22;17.23;;;10.02;;
30185;SDS011;31152;49.190;8.122;2023-03-12T08:39:49;18.05;;;10.25;;
30185;SDS011;31152;49.190;8.122;2023-03-12T08:42:16;20.33;;;10.50;;
30185;SDS011;31152;49.190;8.122;2023-03-12T08:44:43;18.75;;;10.18;;
30185;SDS011;31152;49.190;8.122;2023-03-12T08:47:09;18.45;;;10.30;;
30185;SDS011;31152;49.190;8.122;2023-03-12T08:49:36;16.92;;;10.18;;
30185;SDS011;31152;49.190;8.122;2023-03-12T08:52:03;25.42;;;12.52;;
30185;SDS011;31152;49.190;8.122;2023-03-12T08:54:30;19.77;;;11.13;;
30185;SDS011;31152;49.190;8.122;2023-03-12T08:56:57;21.58;;;12.48;;
30185;SDS011;31152;49.190;8.122;2023-03-12T08:59:26;25.73;;;12.43;;
30185;SDS011;31152;49.190;8.122;2023-03-12T09:01:52;21.52;;;11.95;;
30185;SDS011;31152;49.190;8.122;2023-03-12T09:04:21;18.27;;;11.38;;
30185;SDS011;31152;49.190;8.122;2023-03-12T09:06:48;23.38;;;13.10;;
30185;SDS011;31152;49.190;8.122;2023-03-12T09:09:14;23.65;;;12.35;;
30185;SDS011;31152;49.190;8.122;2023-03-12T09:11:41;24.83;;;13.27;;
30185;SDS011;31152;49.190;8.122;2023-03-12T09:14:08;19.85;;;13.05;;
30185;SDS011;31152;49.190;8.122;2023-03-12T09:16:55;19.55;;;12.30;;
30185;SDS011;31152;49.190;8.122;2023-03-12T09:19:25;21.88;;;13.85;;
30185;SDS011;31152;49.190;8.122;2023-03-12T09:21:51;15.45;;;10.75;;
30185;SDS011;31152;49.190;8.122;2023-03-12T09:24:18;18.83;;;12.07;;
30185;SDS011;31152;49.190;8.122;2023-03-12T09:26:45;17.80;;;10.35;;
30185;SDS011;31152;49.190;8.122;2023-03-12T09:29:15;14.95;;;10.38;;
30185;SDS011;31152;49.190;8.122;2023-03-12T09:31:46;18.40;;;9.73;;
30185;SDS011;31152;49.190;8.122;2023-03-12T09:34:16;19.92;;;10.77;;
30185;SDS011;31152;49.190;8.122;2023-03-12T09:36:42;17.23;;;10.70;;
30185;SDS011;31152;49.190;8.122;2023-03-12T09:39:09;16.27;;;10.40;;
30185;SDS011;31152;49.190;8.122;2023-03-12T09:41:37;16.52;;;10.55;;
30185;SDS011;31152;49.190;8.122;2023-03-12T09:46:55;21.15;;;10.73;;
30185;SDS011;31152;49.190;8.122;2023-03-12T09:51:58;17.13;;;10.60;;
30185;SDS011;31152;49.190;8.122;2023-03-12T09:54:39;17.60;;;10.75;;
30185;SDS011;31152;49.190;8.122;2023-03-12T09:57:18;14.35;;;9.77;;
30185;SDS011;31152;49.190;8.122;2023-03-12T09:59:49;18.50;;;8.82;;
30185;SDS011;31152;49.190;8.122;2023-03-12T10:02:42;12.60;;;8.25;;
30185;SDS011;31152;49.190;8.122;2023-03-12T10:22:52;12.30;;;7.45;;
30185;SDS011;31152;49.190;8.122;2023-03-12T10:25:39;13.13;;;6.57;;
30185;SDS011;31152;49.190;8.122;2023-03-12T10:28:14;10.43;;;5.63;;
30185;SDS011;31152;49.190;8.122;2023-03-12T10:30:49;10.27;;;6.45;;
30185;SDS011;31152;49.190;8.122;2023-03-12T10:33:20;9.17;;;6.03;;
30185;SDS011;31152;49.190;8.122;2023-03-12T10:35:50;8.07;;;6.20;;
30185;SDS011;31152;49.190;8.122;2023-03-12T10:38:24;7.03;;;5.32;;
30185;SDS011;31152;49.190;8.122;2023-03-12T10:40:54;8.88;;;5.60;;
30185;SDS011;31152;49.190;8.122;2023-03-12T10:43:21;8.20;;;5.28;;
30185;SDS011;31152;49.190;8.122;2023-03-12T10:48:43;8.02;;;5.55;;
30185;SDS011;31152;49.190;8.122;2023-03-12T10:51:11;6.88;;;4.78;;
30185;SDS011;31152;49.190;8.122;2023-03-12T10:53:39;6.25;;;4.95;;
30185;SDS011;31152;49.190;8.122;2023-03-12T10:56:10;9.23;;;4.95;;
30185;SDS011;31152;49.190;8.122;2023-03-12T10:58:40;7.85;;;5.18;;
30185;SDS011;31152;49.190;8.122;2023-03-12T11:01:22;12.68;;;5.35;;
30185;SDS011;31152;49.190;8.122;2023-03-12T11:04:06;9.07;;;4.88;;
30185;SDS011;31152;49.190;8.122;2023-03-12T11:06:36;8.32;;;5.45;;
30185;SDS011;31152;49.190;8.122;2023-03-12T11:11:44;8.25;;;5.40;;
30185;SDS011;31152;49.190;8.122;2023-03-12T11:14:15;8.45;;;5.90;;
30185;SDS011;31152;49.190;8.122;2023-03-12T11:16:43;11.88;;;5.40;;
30185;SDS011;31152;49.190;8.122;2023-03-12T11:19:11;7.35;;;5.53;;
30185;SDS011;31152;49.190;8.122;2023-03-12T11:21:39;7.95;;;5.35;;
30185;SDS011;31152;49.190;8.122;2023-03-12T11:24:22;7.18;;;5.15;;
30185;SDS011;31152;49.190;8.122;2023-03-12T11:26:52;8.20;;;5.43;;
30185;SDS011;31152;49.190;8.122;2023-03-12T11:29:47;9.70;;;5.32;;
30185;SDS011;31152;49.190;8.122;2023-03-12T11:32:39;7.40;;;4.97;;
30185;SDS011;31152;49.190;8.122;2023-03-12T11:35:14;7.97;;;5.53;;
30185;SDS011;31152;49.190;8.122;2023-03-12T11:43:21;3.88;;;2.72;;
30185;SDS011;31152;49.190;8.122;2023-03-12T11:52:11;5.28;;;2.75;;
30185;SDS011;31152;49.190;8.122;2023-03-12T11:54:57;5.03;;;3.10;;
30185;SDS011;31152;49.190;8.122;2023-03-12T11:57:51;6.72;;;2.80;;
30185;SDS011;31152;49.190;8.122;2023-03-12T12:00:27;5.55;;;2.80;;
30185;SDS011;31152;49.190;8.122;2023-03-12T12:06:25;4.85;;;2.10;;
30185;SDS011;31152;49.190;8.122;2023-03-12T12:14:50;4.35;;;2.00;;
30185;SDS011;31152;49.190;8.122;2023-03-12T12:20:38;7.90;;;2.15;;
30185;SDS011;31152;49.190;8.122;2023-03-12T12:23:30;7.90;;;2.40;;
30185;SDS011;31152;49.190;8.122;2023-03-12T12:31:57;13.00;;;2.60;;
30185;SDS011;31152;49.190;8.122;2023-03-12T12:40:15;9.75;;;3.25;;
30185;SDS011;31152;49.190;8.122;2023-03-12T12:43:00;11.90;;;2.95;;
30185;SDS011;31152;49.190;8.122;2023-03-12T12:45:47;13.82;;;2.47;;
30185;SDS011;31152;49.190;8.122;2023-03-12T12:48:18;14.23;;;2.78;;
30185;SDS011;31152;49.190;8.122;2023-03-12T12:50:50;10.57;;;2.90;;
30185;SDS011;31152;49.190;8.122;2023-03-12T12:53:20;9.35;;;2.53;;
30185;SDS011;31152;49.190;8.122;2023-03-12T12:56:01;16.75;;;3.03;;
30185;SDS011;31152;49.190;8.122;2023-03-12T12:59:01;11.57;;;2.75;;
30185;SDS011;31152;49.190;8.122;2023-03-12T13:01:34;13.40;;;2.58;;
30185;SDS011;31152;49.190;8.122;2023-03-12T13:04:08;19.67;;;3.30;;
30185;SDS011;31152;49.190;8.122;2023-03-12T13:09:36;15.70;;;2.85;;
30185;SDS011;31152;49.190;8.122;2023-03-12T13:12:11;14.75;;;2.63;;
30185;SDS011;31152;49.190;8.122;2023-03-12T13:14:42;14.20;;;2.92;;
30185;SDS011;31152;49.190;8.122;2023-03-12T13:17:18;13.90;;;3.13;;
30185;SDS011;31152;49.190;8.122;2023-03-12T13:20:13;17.67;;;4.25;;
30185;SDS011;31152;49.190;8.122;2023-03-12T13:25:45;11.35;;;2.78;;
30185;SDS011;31152;49.190;8.122;2023-03-12T13:30:55;18.70;;;3.08;;
30185;SDS011;31152;49.190;8.122;2023-03-12T13:36:18;15.45;;;2.90;;
30185;SDS011;31152;49.190;8.122;2023-03-12T13:38:52;15.10;;;2.72;;
30185;SDS011;31152;49.190;8.122;2023-03-12T13:47:03;25.55;;;3.33;;
30185;SDS011;31152;49.190;8.122;2023-03-12T13:49:45;14.35;;;3.45;;
30185;SDS011;31152;49.190;8.122;2023-03-12T13:52:25;16.27;;;2.80;;
30185;SDS011;31152;49.190;8.122;2023-03-12T13:55:05;13.45;;;2.50;;
30185;SDS011;31152;49.190;8.122;2023-03-12T13:57:49;16.80;;;3.47;;
30185;SDS011;31152;49.190;8.122;2023-03-12T14:00:30;19.63;;;2.72;;
30185;SDS011;31152;49.190;8.122;2023-03-12T14:03:15;17.80;;;3.10;;
30185;SDS011;31152;49.190;8.122;2023-03-12T14:05:51;18.02;;;3.08;;
30185;SDS011;31152;49.190;8.122;2023-03-12T14:08:29;17.02;;;2.42;;
30185;SDS011;31152;49.190;8.122;2023-03-12T14:16:39;21.98;;;4.50;;
30185;SDS011;31152;49.190;8.122;2023-03-12T14:19:11;18.75;;;4.18;;
30185;SDS011;31152;49.190;8.122;2023-03-12T14:21:39;17.80;;;3.08;;
30185;SDS011;31152;49.190;8.122;2023-03-12T14:24:14;18.67;;;4.40;;
30185;SDS011;31152;49.190;8.122;2023-03-12T14:26:49;23.10;;;4.05;;
30185;SDS011;31152;49.190;8.122;2023-03-12T14:29:22;23.58;;;3.90;;
30185;SDS011;31152;49.190;8.122;2023-03-12T14:31:56;19.63;;;3.67;;
30185;SDS011;31152;49.190;8.122;2023-03-12T14:34:40;19.48;;;3.97;;
30185;SDS011;31152;49.190;8.122;2023-03-12T14:37:15;17.27;;;3.28;;
30185;SDS011;31152;49.190;8.122;2023-03-12T14:42:32;30.52;;;4.00;;
30185;SDS011;31152;49.190;8.122;2023-03-12T14:45:02;18.77;;;3.28;;
30185;SDS011;31152;49.190;8.122;2023-03-12T14:47:39;19.60;;;3.25;;
30185;SDS011;31152;49.190;8.122;2023-03-12T14:50:16;23.33;;;3.50;;
30185;SDS011;31152;49.190;8.122;2023-03-12T14:52:50;22.75;;;3.45;;
30185;SDS011;31152;49.190;8.122;2023-03-12T14:55:21;22.48;;;3.45;;
30185;SDS011;31152;49.190;8.122;2023-03-12T14:58:14;15.75;;;4.13;;
30185;SDS011;31152;49.190;8.122;2023-03-12T15:00:53;24.42;;;4.47;;
30185;SDS011;31152;49.190;8.122;2023-03-12T15:03:42;20.77;;;3.60;;
30185;SDS011;31152;49.190;8.122;2023-03-12T15:09:00;20.23;;;4.68;;
30185;SDS011;31152;49.190;8.122;2023-03-12T15:11:29;20.60;;;3.72;;
30185;SDS011;31152;49.190;8.122;2023-03-12T15:14:02;20.08;;;3.70;;
30185;SDS011;31152;49.190;8.122;2023-03-12T15:16:37;18.00;;;2.90;;
30185;SDS011;31152;49.190;8.122;2023-03-12T15:19:04;21.02;;;3.05;;
30185;SDS011;31152;49.190;8.122;2023-03-12T15:21:34;18.27;;;2.80;;
30185;SDS011;31152;49.190;8.122;2023-03-12T15:24:01;24.58;;;3.30;;
30185;SDS011;31152;49.190;8.122;2023-03-12T15:26:31;19.65;;;3.47;;
30185;SDS011;31152;49.190;8.122;2023-03-12T15:31:53;19.00;;;4.05;;
30185;SDS011;31152;49.190;8.122;2023-03-12T15:34:40;23.23;;;4.35;;
30185;SDS011;31152;49.190;8.122;2023-03-12T15:40:19;25.42;;;4.20;;
30185;SDS011;31152;49.190;8.122;2023-03-12T15:42:47;24.67;;;3.28;;
30185;SDS011;31152;49.190;8.122;2023-03-12T15:45:18;22.00;;;3.40;;
30185;SDS011;31152;49.190;8.122;2023-03-12T15:47:57;16.38;;;3.55;;
30185;SDS011;31152;49.190;8.122;2023-03-12T15:50:29;19.30;;;3.28;;
30185;SDS011;31152;49.190;8.122;2023-03-12T15:55:37;18.38;;;2.90;;
30185;SDS011;31152;49.190;8.122;2023-03-12T15:58:24;21.95;;;3.88;;
30185;SDS011;31152;49.190;8.122;2023-03-12T16:01:08;22.45;;;4.40;;
30185;SDS011;31152;49.190;8.122;2023-03-12T16:03:38;16.15;;;3.05;;
30185;SDS011;31152;49.190;8.122;2023-03-12T16:06:09;21.85;;;4.70;;
30185;SDS011;31152;49.190;8.122;2023-03-12T16:08:45;24.10;;;3.10;;
30185;SDS011;31152;49.190;8.122;2023-03-12T16:11:16;19.98;;;4.28;;
30185;SDS011;31152;49.190;8.122;2023-03-12T16:14:00;17.50;;;3.00;;
30185;SDS011;31152;49.190;8.122;2023-03-12T16:16:39;23.08;;;3.40;;
30185;SDS011;31152;49.190;8.122;2023-03-12T16:19:13;18.73;;;3.63;;
30185;SDS011;31152;49.190;8.122;2023-03-12T16:21:44;16.48;;;3.17;;
30185;SDS011;31152;49.190;8.122;2023-03-12T16:24:12;18.23;;;3.45;;
30185;SDS011;31152;49.190;8.122;2023-03-12T16:27:15;24.25;;;4.22;;
30185;SDS011;31152;49.190;8.122;2023-03-12T16:29:39;18.60;;;3.80;;
30185;SDS011;31152;49.190;8.122;2023-03-12T16:32:13;20.45;;;3.35;;
30185;SDS011;31152;49.190;8.122;2023-03-12T16:34:41;19.25;;;3.63;;
30185;SDS011;31152;49.190;8.122;2023-03-12T16:37:10;26.15;;;4.50;;
30185;SDS011;31152;49.190;8.122;2023-03-12T16:39:37;17.10;;;3.95;;
30185;SDS011;31152;49.190;8.122;2023-03-12T16:42:08;21.75;;;3.38;;
30185;SDS011;31152;49.190;8.122;2023-03-12T16:44:43;23.05;;;3.90;;
30185;SDS011;31152;49.190;8.122;2023-03-12T16:47:13;16.50;;;3.20;;